Time;durP1;ratioP1;P1;durP2;ratioP2;P2;SDS_P1;SDS_P2;PMS_P1;PMS_P2;Temp;Humidity;BMP_temperature;BMP_pressure;BME280_temperature;BME280_humidity;BME280_pressure;Samples;Min_cycle;Max_cycle;Signal;HPM_P1;HPM_P2
2021/03/28 00:02:31;;;;;;;29.55;3.45;;;3.40;99.90;;;;;;4902385;28;20173;-84
2021/03/28 00:05:12;;;;;;;17.48;2.67;;;3.30;99.90;;;;;;4904302;28;20612;-84
2021/03/28 00:07:40;;;;;;;25.63;3.25;;;3.20;99.90;;;;;;4903370;28;20148;-81
2021/03/28 00:10:08;;;;;;;20.80;3.25;;;3.20;99.90;;;;;;4894039;28;20087;-83
2021/03/28 00:12:35;;;;;;;21.85;3.30;;;3.20;99.90;;;;;;4905530;28;20492;-83
2021/03/28 00:15:18;;;;;;;11.35;3.28;;;3.10;99.90;;;;;;4893148;28;20510;-82
2021/03/28 00:17:46;;;;;;;17.25;2.70;;;3.10;99.90;;;;;;4894016;28;20142;-84
2021/03/28 00:20:25;;;;;;;16.88;2.95;;;3.10;99.90;;;;;;4892081;28;20080;-84
2021/03/28 00:22:59;;;;;;;16.15;3.33;;;3.00;99.90;;;;;;4884417;28;20137;-84
2021/03/28 00:25:34;;;;;;;18.38;3.05;;;2.90;99.90;;;;;;4904557;28;20448;-83
2021/03/28 00:27:57;;;;;;;16.73;2.83;;;2.90;99.90;;;;;;4904108;28;20534;-83
2021/03/28 00:30:30;;;;;;;12.35;3.33;;;2.90;99.90;;;;;;4903565;28;20091;-81
2021/03/28 00:33:00;;;;;;;15.60;3.30;;;2.90;99.90;;;;;;4898596;28;20091;-85
2021/03/28 00:35:29;;;;;;;29.52;3.33;;;2.80;99.90;;;;;;4904269;28;20466;-83
2021/03/28 00:38:08;;;;;;;15.23;2.72;;;2.80;99.90;;;;;;4889870;28;20091;-83
2021/03/28 00:40:32;;;;;;;19.10;3.35;;;2.80;99.90;;;;;;4891582;28;20518;-82
2021/03/28 00:43:11;;;;;;;8.50;2.70;;;2.70;99.90;;;;;;4880340;28;20091;-80
2021/03/28 00:45:46;;;;;;;14.48;2.92;;;2.70;99.90;;;;;;4894897;28;20087;-83
2021/03/28 00:48:12;;;;;;;17.77;3.15;;;2.70;99.90;;;;;;4894946;28;20839;-84
2021/03/28 00:50:38;;;;;;;14.88;2.80;;;2.70;99.90;;;;;;4895997;28;20476;-82
2021/03/28 00:53:04;;;;;;;15.30;3.13;;;2.60;99.90;;;;;;4897183;28;20097;-85
2021/03/28 00:55:31;;;;;;;17.23;3.80;;;2.60;99.90;;;;;;4894610;28;20112;-83
2021/03/28 00:58:08;;;;;;;7.85;2.72;;;2.50;99.90;;;;;;4885130;28;20156;-83
2021/03/28 01:01:05;;;;;;;16.67;3.22;;;2.40;99.90;;;;;;4892305;28;20099;-83
2021/03/28 01:03:34;;;;;;;;;;;2.40;99.90;;;;;;4887205;28;20084;-83
2021/03/28 01:06:01;;;;;;;11.45;2.90;;;2.40;99.90;;;;;;4906611;28;20100;-81
2021/03/28 01:08:28;;;;;;;11.55;2.65;;;2.40;99.90;;;;;;4908576;28;20102;-82
2021/03/28 01:11:10;;;;;;;17.73;2.78;;;2.40;99.90;;;;;;4869698;28;20099;-83
2021/03/28 01:14:21;;;;;;;10.77;3.30;;;2.40;99.90;;;;;;4895727;28;20090;-86
2021/03/28 01:17:36;;;;;;;20.90;3.38;;;2.40;99.90;;;;;;4897879;28;20140;-83
2021/03/28 01:20:25;;;;;;;16.50;3.47;;;2.40;99.90;;;;;;4894176;28;20273;-84
2021/03/28 01:22:57;;;;;;;11.32;2.53;;;2.40;99.90;;;;;;4881244;28;20114;-83
2021/03/28 01:25:44;;;;;;;11.13;2.72;;;2.40;99.90;;;;;;4895636;28;20091;-83
2021/03/28 01:28:20;;;;;;;13.98;2.80;;;2.50;99.90;;;;;;4880884;28;20090;-82
2021/03/28 01:30:47;;;;;;;10.63;2.75;;;2.50;99.90;;;;;;4880045;28;20108;-81
2021/03/28 01:33:16;;;;;;;14.10;2.53;;;2.40;99.90;;;;;;4890841;28;20091;-85
2021/03/28 01:35:52;;;;;;;16.08;3.65;;;2.40;99.90;;;;;;4895751;28;20086;-81
2021/03/28 01:38:19;;;;;;;;;;;3.30;99.90;;;;;;4907155;28;20534;-82
2021/03/28 01:40:48;;;;;;;14.77;3.03;;;2.40;99.90;;;;;;4905484;28;19970;-82
2021/03/28 01:43:34;;;;;;;17.88;3.55;;;2.40;99.90;;;;;;4909340;28;20091;-82
2021/03/28 01:46:02;;;;;;;11.02;3.47;;;2.40;99.90;;;;;;4904952;28;20090;-83
2021/03/28 01:48:38;;;;;;;14.48;3.40;;;2.40;99.90;;;;;;4896724;28;20718;-82
2021/03/28 01:51:33;;;;;;;18.90;3.60;;;2.30;99.90;;;;;;4897002;28;20093;-82
2021/03/28 01:54:04;;;;;;;25.33;3.47;;;2.30;99.90;;;;;;4895845;28;20099;-82
2021/03/28 01:56:32;;;;;;;21.38;4.32;;;2.30;99.90;;;;;;4902910;28;20086;-84
2021/03/28 01:59:08;;;;;;;16.45;3.80;;;2.30;99.90;;;;;;4892054;28;20095;-82
2021/03/28 02:01:43;;;;;;;12.45;2.88;;;2.30;99.90;;;;;;4891772;28;20078;-83
2021/03/28 02:04:13;;;;;;;;;;;2.30;99.90;;;;;;4896919;28;20098;-81
2021/03/28 02:06:48;;;;;;;16.88;3.63;;;2.30;99.90;;;;;;4895092;28;19971;-83
2021/03/28 02:09:25;;;;;;;13.00;3.65;;;2.20;99.90;;;;;;4892357;28;20469;-83
2021/03/28 02:12:01;;;;;;;13.07;3.80;;;2.30;99.90;;;;;;4871976;28;20552;-84
2021/03/28 02:15:11;;;;;;;15.30;4.68;;;2.30;99.90;;;;;;4879988;28;20095;-87
2021/03/28 02:17:51;;;;;;;12.77;3.90;;;2.30;99.90;;;;;;4854961;28;20094;-82
2021/03/28 02:20:32;;;;;;;13.52;3.83;;;2.30;99.90;;;;;;4890340;28;20110;-80
2021/03/28 02:23:07;;;;;;;16.80;3.65;;;2.30;99.90;;;;;;4899726;28;20126;-84
2021/03/28 02:25:40;;;;;;;13.13;4.67;;;2.20;99.90;;;;;;4891388;28;20091;-85
2021/03/28 02:28:12;;;;;;;15.05;4.85;;;2.30;99.90;;;;;;4889408;28;20083;-82
2021/03/28 02:30:51;;;;;;;15.68;4.25;;;2.20;99.90;;;;;;4879683;28;20162;-83
2021/03/28 02:33:21;;;;;;;23.35;4.80;;;2.20;99.90;;;;;;4891530;28;20137;-83
2021/03/28 02:36:01;;;;;;;17.60;4.28;;;2.20;99.90;;;;;;4893089;28;20140;-82
2021/03/28 02:38:45;;;;;;;17.35;4.63;;;2.20;99.90;;;;;;4891282;28;20090;-81
2021/03/28 02:41:13;;;;;;;18.88;4.53;;;2.20;99.90;;;;;;4894084;28;20099;-83
2021/03/28 02:43:42;;;;;;;16.17;4.30;;;2.20;99.90;;;;;;4895599;28;20141;-82
2021/03/28 02:46:21;;;;;;;16.63;5.00;;;2.20;99.90;;;;;;4896175;28;20584;-84
2021/03/28 02:49:08;;;;;;;22.33;4.70;;;2.20;99.90;;;;;;4896963;28;20125;-82
2021/03/28 02:51:57;;;;;;;19.42;5.75;;;2.20;99.90;;;;;;4876001;28;20150;-83
2021/03/28 02:55:02;;;;;;;22.27;5.53;;;2.20;99.90;;;;;;4895410;28;20102;-85
2021/03/28 02:57:48;;;;;;;12.93;3.95;;;2.10;99.90;;;;;;4842688;28;20091;-84
2021/03/28 03:00:14;;;;;;;;;;;2.10;99.90;;;;;;4897914;28;20159;-81
2021/03/28 03:02:57;;;;;;;14.63;4.28;;;2.00;99.90;;;;;;4886659;28;19967;-84
2021/03/28 03:05:40;;;;;;;20.02;4.47;;;2.00;99.90;;;;;;4884493;28;20091;-87
2021/03/28 03:08:12;;;;;;;25.52;4.55;;;1.90;99.90;;;;;;4893325;28;20079;-86
2021/03/28 03:11:06;;;;;;;17.20;4.70;;;1.90;99.90;;;;;;4896252;28;20087;-83
2021/03/28 03:13:53;;;;;;;18.90;4.30;;;1.80;99.90;;;;;;4892317;28;20099;-86
2021/03/28 03:16:25;;;;;;;19.15;4.78;;;1.80;99.90;;;;;;4893608;28;20099;-83
2021/03/28 03:19:20;;;;;;;21.92;4.03;;;1.80;99.90;;;;;;4895844;28;20157;-83
2021/03/28 03:22:26;;;;;;;18.67;4.38;;;1.80;99.90;;;;;;4895195;28;20102;-82
2021/03/28 03:25:31;;;;;;;9.82;3.85;;;1.80;99.90;;;;;;4824298;28;20079;-83
2021/03/28 03:28:29;;;;;;;11.65;4.32;;;1.80;99.90;;;;;;4891152;28;20079;-82
2021/03/28 03:31:13;;;;;;;14.38;5.13;;;1.80;99.90;;;;;;4894075;28;20507;-82
2021/03/28 03:34:06;;;;;;;17.17;4.32;;;1.80;99.90;;;;;;4902348;28;20562;-83
2021/03/28 03:36:56;;;;;;;12.40;4.45;;;1.90;99.90;;;;;;4882828;28;20085;-83
2021/03/28 03:39:40;;;;;;;17.83;4.15;;;1.80;99.90;;;;;;4869460;28;20079;-82
2021/03/28 03:42:28;;;;;;;14.85;3.65;;;1.80;99.90;;;;;;4888689;28;20132;-83
2021/03/28 03:45:47;;;;;;;17.70;4.35;;;1.80;99.90;;;;;;4893053;28;20087;-80
2021/03/28 03:48:27;;;;;;;13.18;4.20;;;1.80;99.90;;;;;;4822694;28;20089;-82
2021/03/28 03:51:00;;;;;;;16.80;3.92;;;1.80;99.90;;;;;;4847056;28;20091;-82
2021/03/28 03:53:43;;;;;;;12.38;4.05;;;1.80;99.90;;;;;;4875284;28;20456;-84
2021/03/28 03:56:16;;;;;;;23.70;4.32;;;1.80;99.90;;;;;;4901002;28;20170;-80
2021/03/28 03:58:50;;;;;;;18.33;4.50;;;1.80;99.90;;;;;;4894657;28;20433;-81
2021/03/28 04:01:23;;;;;;;13.27;3.95;;;1.80;99.90;;;;;;4905509;28;20100;-83
2021/03/28 04:04:01;;;;;;;12.90;4.32;;;1.80;99.90;;;;;;4881309;28;20089;-82
2021/03/28 04:06:48;;;;;;;15.32;4.68;;;1.90;99.90;;;;;;4886765;28;20138;-84
2021/03/28 04:09:24;;;;;;;17.00;4.30;;;2.00;99.90;;;;;;4895419;28;20086;-84
2021/03/28 04:12:09;;;;;;;25.63;4.45;;;2.10;99.90;;;;;;4893762;28;20461;-83
2021/03/28 04:15:03;;;;;;;23.50;4.63;;;2.10;99.90;;;;;;4888044;28;20087;-83
2021/03/28 04:17:44;;;;;;;10.45;3.88;;;2.00;99.90;;;;;;4879843;28;20083;-80
2021/03/28 04:20:14;;;;;;;28.65;4.40;;;2.00;99.90;;;;;;4904951;28;20118;-84
2021/03/28 04:23:08;;;;;;;12.05;4.45;;;1.90;99.90;;;;;;4887469;28;20091;-83
2021/03/28 04:25:47;;;;;;;21.00;4.82;;;1.90;99.90;;;;;;4903324;28;20087;-81
2021/03/28 04:28:45;;;;;;;14.65;3.95;;;1.90;99.90;;;;;;4905395;28;20481;-84
2021/03/28 04:31:48;;;;;;;19.02;4.68;;;1.90;99.90;;;;;;4881829;28;20080;-81
2021/03/28 04:34:16;;;;;;;15.65;4.53;;;1.80;99.90;;;;;;4904533;28;20086;-84
2021/03/28 04:36:44;;;;;;;17.25;3.97;;;1.80;99.90;;;;;;4883602;28;20088;-82
2021/03/28 04:39:40;;;;;;;16.98;4.43;;;1.80;99.90;;;;;;4880302;28;20133;-84
2021/03/28 04:42:32;;;;;;;10.65;4.25;;;1.70;99.90;;;;;;4878334;28;20540;-84
2021/03/28 04:45:22;;;;;;;14.95;4.70;;;1.80;99.90;;;;;;4847397;28;20618;-86
2021/03/28 04:48:16;;;;;;;11.68;4.13;;;1.80;99.90;;;;;;4882696;28;20115;-83
2021/03/28 04:51:11;;;;;;;21.73;4.15;;;1.70;99.90;;;;;;4874907;28;20585;-83
2021/03/28 04:54:21;;;;;;;19.75;5.20;;;1.70;99.90;;;;;;4906329;28;20091;-84
2021/03/28 04:57:12;;;;;;;16.77;3.97;;;1.70;99.90;;;;;;4894054;28;20125;-85
2021/03/28 05:00:28;;;;;;;11.95;4.60;;;1.70;99.90;;;;;;4890167;28;20489;-82
2021/03/28 05:03:18;;;;;;;25.52;4.78;;;1.60;99.90;;;;;;4875145;28;20229;-83
2021/03/28 05:06:09;;;;;;;16.08;4.32;;;1.60;99.90;;;;;;4890592;28;20098;-85
2021/03/28 05:09:12;;;;;;;19.08;3.50;;;1.50;99.90;;;;;;4902262;28;20083;-84
2021/03/28 05:12:25;;;;;;;18.45;4.05;;;1.50;99.90;;;;;;4906319;28;20098;-83
2021/03/28 05:15:25;;;;;;;25.42;4.47;;;1.50;99.90;;;;;;4887494;28;20095;-80
2021/03/28 05:18:26;;;;;;;25.02;5.03;;;1.50;99.90;;;;;;4894795;28;20098;-83
2021/03/28 05:21:27;;;;;;;17.65;4.20;;;1.50;99.90;;;;;;4893190;28;20091;-81
2021/03/28 05:24:18;;;;;;;16.58;4.43;;;1.50;99.90;;;;;;4887637;28;20160;-83
2021/03/28 05:27:18;;;;;;;12.35;4.32;;;1.50;99.90;;;;;;4883173;28;20472;-79
2021/03/28 05:30:31;;;;;;;17.55;3.80;;;1.60;99.90;;;;;;4879212;28;20092;-82
2021/03/28 05:33:15;;;;;;;17.95;3.45;;;1.60;99.90;;;;;;4857056;28;20250;-80
2021/03/28 05:36:21;;;;;;;14.48;3.95;;;1.60;99.90;;;;;;4893219;28;20111;-82
2021/03/28 05:39:37;;;;;;;17.42;3.60;;;1.50;99.90;;;;;;4890411;28;20530;-84
2021/03/28 05:42:20;;;;;;;25.90;4.05;;;1.40;99.90;;;;;;4898283;28;20554;-85
2021/03/28 05:45:14;;;;;;;27.05;4.05;;;1.50;99.90;;;;;;4892599;28;20076;-82
2021/03/28 05:48:10;;;;;;;15.48;3.83;;;1.50;99.90;;;;;;4877825;28;20203;-81
2021/03/28 05:50:39;;;;;;;15.95;4.03;;;1.50;99.90;;;;;;4874478;28;20092;-81
2021/03/28 05:53:42;;;;;;;16.88;4.18;;;1.60;99.90;;;;;;4880207;28;20097;-85
2021/03/28 05:56:44;;;;;;;21.30;3.60;;;1.80;99.90;;;;;;4891228;28;20095;-84
2021/03/28 05:59:35;;;;;;;28.67;3.92;;;1.90;99.90;;;;;;4883897;28;20098;-85
2021/03/28 06:02:27;;;;;;;20.25;4.03;;;2.10;99.90;;;;;;4883628;28;20087;-81
2021/03/28 06:05:23;;;;;;;20.02;3.97;;;2.60;99.90;;;;;;4897583;28;20153;-83
2021/03/28 06:08:30;;;;;;;24.58;4.47;;;3.30;99.90;;;;;;4887891;28;20079;-83
2021/03/28 06:11:38;;;;;;;20.42;4.88;;;3.50;99.90;;;;;;4890656;28;20554;-81
2021/03/28 06:14:39;;;;;;;27.25;5.03;;;3.70;99.90;;;;;;4890829;28;20079;-84
2021/03/28 06:17:23;;;;;;;22.85;5.35;;;4.00;99.90;;;;;;4894038;28;20102;-84
2021/03/28 06:20:25;;;;;;;23.98;4.22;;;4.30;99.90;;;;;;4882648;28;20150;-83
2021/03/28 06:23:35;;;;;;;17.75;4.43;;;4.30;99.90;;;;;;4890043;28;20087;-85
2021/03/28 06:26:27;;;;;;;20.80;4.50;;;4.10;99.90;;;;;;4895053;28;20097;-84
2021/03/28 06:29:30;;;;;;;27.63;4.70;;;4.00;99.90;;;;;;4892424;28;20160;-83
2021/03/28 06:32:38;;;;;;;24.88;4.57;;;4.00;99.90;;;;;;4885062;28;20190;-84
2021/03/28 06:35:45;;;;;;;25.25;4.35;;;4.00;99.90;;;;;;4893762;28;20510;-83
2021/03/28 06:38:22;;;;;;;;;;;4.00;99.90;;;;;;4896828;28;20144;-83
2021/03/28 06:41:05;;;;;;;14.45;3.50;;;4.00;99.90;;;;;;4897731;28;19970;-83
2021/03/28 06:44:31;;;;;;;19.55;2.80;;;4.10;99.90;;;;;;4891861;28;20156;-81
2021/03/28 06:47:22;;;;;;;17.85;3.33;;;4.10;99.90;;;;;;4826370;28;20116;-84
2021/03/28 06:50:35;;;;;;;16.33;3.78;;;4.10;99.90;;;;;;4808020;28;20100;-83
2021/03/28 06:53:13;;;;;;;11.05;3.10;;;4.30;99.90;;;;;;4890691;28;20445;-88
2021/03/28 06:55:39;;;;;;;17.63;3.75;;;4.30;99.90;;;;;;4888514;28;20544;-81
2021/03/28 06:58:35;;;;;;;16.35;4.15;;;4.40;99.90;;;;;;4882068;28;20095;-83
2021/03/28 07:01:45;;;;;;;22.00;3.22;;;4.80;99.90;;;;;;4891702;28;20088;-81
2021/03/28 07:04:57;;;;;;;13.10;3.40;;;5.10;99.90;;;;;;4890749;28;20123;-83
2021/03/28 07:07:59;;;;;;;11.88;2.72;;;5.30;99.90;;;;;;4904824;28;20098;-82
2021/03/28 07:10:45;;;;;;;16.65;3.33;;;5.40;99.90;;;;;;4901026;28;20106;-82
2021/03/28 07:13:43;;;;;;;21.27;3.55;;;5.40;99.90;;;;;;4887978;28;20087;-83
2021/03/28 07:16:42;;;;;;;20.23;3.35;;;5.90;99.90;;;;;;4893425;28;20087;-83
2021/03/28 07:19:43;;;;;;;15.73;2.85;;;6.20;99.90;;;;;;4889418;28;20099;-85
2021/03/28 07:22:30;;;;;;;13.32;3.08;;;6.00;99.90;;;;;;4892325;28;20550;-83
2021/03/28 07:25:29;;;;;;;11.65;2.58;;;6.00;99.90;;;;;;4881244;28;20090;-85
2021/03/28 07:28:27;;;;;;;25.13;4.45;;;6.50;99.90;;;;;;4891180;28;20136;-83
2021/03/28 07:31:35;;;;;;;16.40;3.28;;;6.60;99.90;;;;;;4886843;28;20153;-82
2021/03/28 07:34:07;;;;;;;;;;;6.50;99.90;;;;;;4862439;28;20160;-82
2021/03/28 07:36:43;;;;;;;13.00;2.95;;;6.40;99.90;;;;;;4895691;28;19974;-82
2021/03/28 07:39:41;;;;;;;20.13;3.22;;;6.50;99.90;;;;;;4884150;28;20442;-85
2021/03/28 07:42:30;;;;;;;12.50;2.97;;;6.30;99.90;;;;;;4890448;28;20087;-84
2021/03/28 07:45:25;;;;;;;17.45;2.45;;;6.20;99.90;;;;;;4890387;28;20156;-84
2021/03/28 07:48:31;;;;;;;20.58;3.30;;;6.10;99.90;;;;;;4873789;28;20079;-85
2021/03/28 07:51:41;;;;;;;18.75;2.80;;;6.00;99.90;;;;;;4841995;28;20114;-83
2021/03/28 07:54:35;;;;;;;9.10;2.15;;;6.00;99.90;;;;;;4792796;28;20164;-86
2021/03/28 07:57:39;;;;;;;17.80;2.70;;;6.00;99.90;;;;;;4891247;28;20101;-82
2021/03/28 08:00:37;;;;;;;11.90;2.60;;;5.90;99.90;;;;;;4862887;28;20116;-82
2021/03/28 08:03:40;;;;;;;20.15;3.03;;;5.90;99.90;;;;;;4881342;28;20094;-83
2021/03/28 08:06:30;;;;;;;11.20;2.30;;;5.90;99.90;;;;;;4892508;28;23096;-86
2021/03/28 08:09:33;;;;;;;17.45;3.50;;;5.90;99.90;;;;;;4876737;28;20096;-84
2021/03/28 08:12:33;;;;;;;12.38;2.45;;;5.90;99.90;;;;;;4903698;28;20155;-83
2021/03/28 08:15:27;;;;;;;23.33;3.45;;;5.90;99.90;;;;;;4898588;28;20955;-83
2021/03/28 08:18:17;;;;;;;19.85;3.30;;;6.00;99.90;;;;;;4908147;28;20164;-82
2021/03/28 08:21:14;;;;;;;11.30;2.70;;;6.10;99.90;;;;;;4893205;28;20461;-84
2021/03/28 08:24:06;;;;;;;9.80;3.55;;;6.00;99.90;;;;;;4898469;28;20087;-86
2021/03/28 08:27:00;;;;;;;17.50;3.15;;;6.20;99.90;;;;;;4905130;28;20446;-82
2021/03/28 08:29:42;;;;;;;11.48;2.75;;;6.20;99.90;;;;;;4887809;28;20130;-85
2021/03/28 08:32:25;;;;;;;16.20;3.30;;;6.20;99.90;;;;;;4884047;28;20165;-82
2021/03/28 08:35:26;;;;;;;19.55;5.00;;;6.30;99.90;;;;;;4881075;28;20084;-84
2021/03/28 08:38:25;;;;;;;16.52;3.58;;;6.40;99.90;;;;;;4862672;28;20094;-82
2021/03/28 08:41:17;;;;;;;15.80;2.53;;;6.40;99.90;;;;;;4892562;28;20090;-84
2021/03/28 08:44:28;;;;;;;19.42;3.28;;;6.60;99.90;;;;;;4894213;28;20741;-82
2021/03/28 08:47:17;;;;;;;17.10;3.13;;;6.70;99.90;;;;;;4883074;28;20098;-82
2021/03/28 08:49:52;;;;;;;15.77;2.78;;;6.70;99.90;;;;;;4890932;28;20102;-84
2021/03/28 08:52:43;;;;;;;14.98;3.22;;;6.70;99.90;;;;;;4900159;28;20098;-81
2021/03/28 08:55:16;;;;;;;13.50;2.72;;;6.70;99.90;;;;;;4907063;28;20137;-84
2021/03/28 08:57:49;;;;;;;18.77;3.35;;;6.80;99.90;;;;;;4885308;28;20084;-82
2021/03/28 09:00:27;;;;;;;14.43;2.92;;;6.80;99.90;;;;;;4880570;28;20178;-83
2021/03/28 09:03:46;;;;;;;16.48;3.20;;;6.70;99.90;;;;;;4867828;28;20438;-84
2021/03/28 09:06:41;;;;;;;15.35;2.78;;;6.80;99.90;;;;;;4847708;28;20090;-84
2021/03/28 09:09:49;;;;;;;11.75;3.10;;;6.80;99.90;;;;;;4829514;28;20083;-83
2021/03/28 09:13:33;;;;;;;22.27;3.55;;;7.00;99.90;;;;;;4827524;28;20106;-85
2021/03/28 09:16:17;;;;;;;11.65;3.40;;;7.10;99.90;;;;;;4850713;28;20150;-84
2021/03/28 09:19:02;;;;;;;18.25;3.47;;;7.10;99.90;;;;;;4848718;28;20101;-83
2021/03/28 09:21:46;;;;;;;19.20;3.58;;;7.10;99.90;;;;;;4854138;28;20997;-84
2021/03/28 09:24:35;;;;;;;21.55;4.35;;;7.20;99.90;;;;;;4831337;28;22292;-85
2021/03/28 09:27:36;;;;;;;16.90;3.13;;;7.50;99.90;;;;;;4846603;28;20602;-81
2021/03/28 09:30:35;;;;;;;14.27;3.03;;;7.60;99.90;;;;;;4839805;28;20095;-84
2021/03/28 09:40:00;;;;;;;15.70;3.35;;;8.00;99.90;;;;;;4838746;28;20014;-83
2021/03/28 09:42:59;;;;;;;19.20;3.30;;;8.00;99.90;;;;;;4836827;28;20101;-83
2021/03/28 09:46:14;;;;;;;16.92;3.45;;;7.90;99.90;;;;;;4834646;28;20090;-81
2021/03/28 09:49:28;;;;;;;19.70;3.80;;;8.00;99.90;;;;;;4833717;28;20097;-85
2021/03/28 09:52:39;;;;;;;15.50;3.55;;;8.10;99.90;;;;;;4843381;28;20120;-82
2021/03/28 09:55:35;;;;;;;19.63;4.05;;;8.10;99.90;;;;;;4844056;28;20090;-82
2021/03/28 09:58:36;;;;;;;21.17;4.30;;;8.30;99.90;;;;;;4847244;28;20121;-84
2021/03/28 10:01:30;;;;;;;15.60;4.63;;;8.70;99.90;;;;;;4855574;28;20475;-83
2021/03/28 10:04:02;;;;;;;22.88;4.43;;;8.90;99.90;;;;;;4824287;28;20256;-83
2021/03/28 10:06:32;;;;;;;26.17;4.43;;;8.70;99.90;;;;;;4852495;28;20537;-83
2021/03/28 10:09:32;;;;;;;15.43;4.10;;;8.60;99.90;;;;;;4840299;28;20532;-83
2021/03/28 10:12:36;;;;;;;20.98;4.35;;;8.50;99.90;;;;;;4846626;28;20608;-86
2021/03/28 10:18:45;;;;;;;15.48;3.53;;;8.20;99.90;;;;;;4820672;28;22927;-85
2021/03/28 10:21:56;;;;;;;12.00;4.13;;;8.20;99.90;;;;;;4829767;28;20143;-84
2021/03/28 10:24:51;;;;;;;17.80;3.60;;;8.40;99.90;;;;;;4831768;28;20105;-83
2021/03/28 10:27:41;;;;;;;15.98;3.47;;;8.50;99.90;;;;;;4824295;28;20160;-84
2021/03/28 10:30:28;;;;;;;25.35;3.58;;;8.80;99.90;;;;;;4843110;28;20121;-81
2021/03/28 10:33:41;;;;;;;12.00;4.03;;;9.10;99.90;;;;;;4822559;28;20403;-81
2021/03/28 10:36:58;;;;;;;14.00;3.58;;;9.30;99.90;;;;;;4821651;28;20094;-81
2021/03/28 10:43:46;;;;;;;10.77;2.92;;;9.80;99.90;;;;;;4846873;28;20096;-85
2021/03/28 10:46:58;;;;;;;;;;;9.80;99.90;;;;;;4847635;28;20341;-82
2021/03/28 10:50:17;;;;;;;12.50;3.30;;;9.80;99.90;;;;;;4836898;28;19961;-82
2021/03/28 10:53:24;;;;;;;11.25;3.13;;;10.10;99.90;;;;;;4841341;28;20092;-83
2021/03/28 10:56:34;;;;;;;13.02;3.55;;;10.30;99.90;;;;;;4823128;28;20758;-84
2021/03/28 10:59:31;;;;;;;13.85;3.03;;;10.30;99.90;;;;;;4894594;28;20562;-85
2021/03/28 11:02:11;;;;;;;;;;;10.60;99.90;;;;;;4905975;28;20455;-80
2021/03/28 11:05:10;;;;;;;18.00;3.63;;;10.40;99.90;;;;;;4904149;28;19960;-84
2021/03/28 11:07:59;;;;;;;16.95;3.38;;;10.50;99.90;;;;;;4905044;28;20133;-80
2021/03/28 11:10:57;;;;;;;11.00;3.13;;;10.40;99.90;;;;;;4897757;28;20103;-85
2021/03/28 11:13:43;;;;;;;10.02;2.97;;;10.40;99.90;;;;;;4905566;28;20089;-83
2021/03/28 11:16:22;;;;;;;11.90;2.47;;;10.20;99.90;;;;;;4904857;28;20092;-85
2021/03/28 11:19:15;;;;;;;16.98;3.00;;;10.30;99.90;;;;;;4885332;28;20084;-80
2021/03/28 11:21:45;;;;;;;19.55;3.05;;;10.30;99.90;;;;;;4893357;28;20118;-82
2021/03/28 11:24:21;;;;;;;16.77;3.22;;;10.30;99.90;;;;;;4886467;28;20563;-85
2021/03/28 11:26:57;;;;;;;;;;;10.20;99.90;;;;;;4888680;28;20085;-81
2021/03/28 11:29:45;;;;;;;15.95;3.03;;;10.10;99.90;;;;;;4887673;28;19967;-83
2021/03/28 11:32:21;;;;;;;9.50;2.65;;;10.20;99.90;;;;;;4894670;28;20080;-82
2021/03/28 11:35:03;;;;;;;19.55;3.47;;;10.40;99.90;;;;;;4888421;28;20589;-81
2021/03/28 11:37:43;;;;;;;18.80;2.88;;;10.70;99.90;;;;;;4876780;28;20157;-82
2021/03/28 11:40:31;;;;;;;17.50;3.13;;;10.70;99.90;;;;;;4890243;28;20084;-84
2021/03/28 11:43:24;;;;;;;8.25;2.85;;;10.70;99.90;;;;;;4891356;28;20498;-83
2021/03/28 11:45:48;;;;;;;13.18;3.00;;;10.70;99.90;;;;;;4901495;28;24899;-83
2021/03/28 11:48:25;;;;;;;10.57;2.72;;;10.70;99.90;;;;;;4904636;28;20092;-84
2021/03/28 11:50:49;;;;;;;13.60;2.70;;;10.90;99.90;;;;;;4905784;28;20083;-84
2021/03/28 11:53:28;;;;;;;21.15;3.53;;;11.10;99.90;;;;;;4904821;28;20085;-82
2021/03/28 11:55:55;;;;;;;12.13;2.70;;;11.30;99.90;;;;;;4904677;28;20091;-82
2021/03/28 11:58:48;;;;;;;15.38;3.05;;;11.20;99.90;;;;;;4906380;28;20134;-81
2021/03/28 12:01:12;;;;;;;12.63;3.17;;;11.20;99.90;;;;;;4876107;28;20431;-82
2021/03/28 12:03:40;;;;;;;10.93;2.88;;;11.40;99.90;;;;;;4872375;28;20596;-83
2021/03/28 12:06:08;;;;;;;9.98;2.70;;;11.60;99.90;;;;;;4905814;28;20075;-81
2021/03/28 12:08:35;;;;;;;15.02;3.30;;;11.80;99.90;;;;;;4906150;28;20090;-84
2021/03/28 12:11:15;;;;;;;13.82;2.85;;;11.90;99.90;;;;;;4903391;28;20093;-84
2021/03/28 12:13:49;;;;;;;15.63;2.40;;;11.70;99.90;;;;;;4896402;28;20502;-82
2021/03/28 12:16:12;;;;;;;9.07;1.92;;;11.60;99.90;;;;;;4891092;28;20097;-84
2021/03/28 12:18:43;;;;;;;12.63;2.05;;;11.50;99.90;;;;;;4895318;28;20476;-82
2021/03/28 12:21:31;;;;;;;14.70;3.03;;;11.50;99.90;;;;;;4890340;28;20082;-82
2021/03/28 12:24:02;;;;;;;11.10;2.10;;;11.60;99.90;;;;;;4880499;28;20172;-80
2021/03/28 12:26:29;;;;;;;5.18;1.70;;;11.90;99.90;;;;;;4886188;28;20085;-86
2021/03/28 12:28:58;;;;;;;5.43;1.77;;;12.10;99.90;;;;;;4897597;28;20163;-83
2021/03/28 12:31:34;;;;;;;12.93;2.08;;;12.30;99.90;;;;;;4894044;28;20091;-81
2021/03/28 12:34:16;;;;;;;8.73;1.67;;;12.20;99.90;;;;;;4896238;28;20169;-81
2021/03/28 12:36:56;;;;;;;11.30;1.80;;;11.80;99.90;;;;;;4887953;28;20177;-83
2021/03/28 12:39:24;;;;;;;9.00;1.52;;;11.70;99.90;;;;;;4904990;28;20082;-84
2021/03/28 12:42:16;;;;;;;12.82;1.70;;;11.70;99.90;;;;;;4879699;28;20153;-85
2021/03/28 12:44:39;;;;;;;5.45;1.05;;;11.70;99.90;;;;;;4880696;28;20503;-84
2021/03/28 12:47:14;;;;;;;4.35;1.13;;;11.60;99.90;;;;;;4876512;28;20088;-82
2021/03/28 12:49:50;;;;;;;4.07;1.10;;;11.70;99.90;;;;;;4891702;28;20086;-82
2021/03/28 12:52:46;;;;;;;4.97;1.13;;;11.90;99.90;;;;;;4898720;28;20145;-83
2021/03/28 12:55:34;;;;;;;7.45;1.23;;;12.10;99.90;;;;;;4903443;28;20423;-83
2021/03/28 12:58:11;;;;;;;7.82;1.42;;;12.10;99.90;;;;;;4905317;28;20093;-82
2021/03/28 13:00:43;;;;;;;5.45;1.23;;;12.00;99.90;;;;;;4910884;28;20082;-82
2021/03/28 13:03:24;;;;;;;4.63;1.33;;;12.10;99.90;;;;;;4881077;28;20084;-80
2021/03/28 13:06:15;;;;;;;10.50;1.95;;;11.90;99.90;;;;;;4885191;28;20102;-82
2021/03/28 13:08:45;;;;;;;5.00;1.50;;;11.80;99.90;;;;;;4884498;28;20107;-81
2021/03/28 13:11:10;;;;;;;8.23;1.45;;;11.70;99.90;;;;;;4891387;28;20139;-83
2021/03/28 13:13:41;;;;;;;12.50;1.90;;;11.90;99.90;;;;;;4907210;28;20085;-84
2021/03/28 13:16:04;;;;;;;8.77;1.75;;;12.10;99.90;;;;;;4907584;28;20080;-82
2021/03/28 13:18:30;;;;;;;7.63;1.95;;;12.10;99.90;;;;;;4907982;28;20089;-82
2021/03/28 13:20:56;;;;;;;11.98;1.50;;;12.00;99.90;;;;;;4900940;28;20082;-84
2021/03/28 13:23:27;;;;;;;9.10;1.77;;;12.10;99.90;;;;;;4893419;28;20559;-80
2021/03/28 13:26:10;;;;;;;7.43;1.40;;;12.10;99.90;;;;;;4894191;28;20081;-86
2021/03/28 13:28:34;;;;;;;5.88;1.48;;;12.00;99.90;;;;;;4892152;28;20097;-81
2021/03/28 13:31:16;;;;;;;6.35;1.65;;;11.90;99.90;;;;;;4890241;28;20093;-86
2021/03/28 13:33:42;;;;;;;8.32;1.50;;;12.00;99.90;;;;;;4896750;28;20086;-81
2021/03/28 13:36:25;;;;;;;;;;;11.90;99.90;;;;;;4908460;28;20084;-82
2021/03/28 13:39:21;;;;;;;5.93;1.45;;;11.70;99.90;;;;;;4881988;28;20013;-85
2021/03/28 13:42:01;;;;;;;9.52;1.70;;;11.80;99.90;;;;;;4884148;28;20089;-84
2021/03/28 13:44:27;;;;;;;8.55;1.80;;;11.90;99.90;;;;;;4895671;28;20091;-84
2021/03/28 13:46:52;;;;;;;8.07;2.17;;;11.80;99.90;;;;;;4878937;28;20084;-82
2021/03/28 13:49:32;;;;;;;8.57;1.73;;;11.70;99.90;;;;;;4865762;28;20703;-83
2021/03/28 13:52:19;;;;;;;11.85;2.22;;;11.60;99.90;;;;;;4882823;28;20091;-83
2021/03/28 13:54:45;;;;;;;12.00;2.20;;;11.40;99.90;;;;;;4902748;28;20087;-82
2021/03/28 13:57:15;;;;;;;12.18;2.30;;;11.20;99.90;;;;;;4881998;28;20102;-83
2021/03/28 13:59:58;;;;;;;10.10;2.85;;;11.20;99.90;;;;;;4885012;28;20138;-80
2021/03/28 14:02:24;;;;;;;8.73;2.13;;;11.10;99.90;;;;;;4894703;28;20091;-80
2021/03/28 14:04:55;;;;;;;15.85;2.10;;;11.10;99.90;;;;;;4898679;28;20546;-79
2021/03/28 14:07:27;;;;;;;13.95;2.20;;;10.90;99.90;;;;;;4872546;28;20088;-82
2021/03/28 14:10:07;;;;;;;3.95;1.70;;;10.90;99.90;;;;;;4882839;28;20088;-82
2021/03/28 14:12:38;;;;;;;12.90;2.00;;;10.80;99.90;;;;;;4893758;28;20155;-82
2021/03/28 14:15:33;;;;;;;9.65;2.00;;;10.90;99.90;;;;;;4880887;28;20089;-82
2021/03/28 14:17:59;;;;;;;12.32;1.88;;;10.90;99.90;;;;;;4905901;28;20099;-83
2021/03/28 14:20:28;;;;;;;7.13;1.73;;;10.90;99.90;;;;;;4897975;28;20079;-82
2021/03/28 14:22:53;;;;;;;11.27;1.98;;;10.80;99.90;;;;;;4908022;28;20595;-84
2021/03/28 14:25:30;;;;;;;12.07;1.85;;;10.80;99.90;;;;;;4909257;28;20083;-82
2021/03/28 14:27:54;;;;;;;9.27;1.88;;;10.90;99.90;;;;;;4904231;28;20145;-80
2021/03/28 14:30:21;;;;;;;9.73;2.00;;;10.90;99.90;;;;;;4907543;28;20559;-84
2021/03/28 14:32:46;;;;;;;7.10;2.17;;;10.80;99.90;;;;;;4911215;28;20091;-84
2021/03/28 14:35:51;;;;;;;11.48;2.17;;;10.70;99.90;;;;;;4908365;28;20087;-82
2021/03/28 14:38:57;;;;;;;13.50;2.45;;;10.70;99.90;;;;;;4889939;28;20092;-81